sensor_id;sensor_type;location;lat;lon;timestamp;temperature;humidity
16976;DHT22;8604;48.148;-1.786;2022-08-05T00:01:30;16.90;99.90
16976;DHT22;8604;48.148;-1.786;2022-08-05T00:04:03;16.80;99.90
16976;DHT22;8604;48.148;-1.786;2022-08-05T00:06:36;16.80;99.90
16976;DHT22;8604;48.148;-1.786;2022-08-05T00:09:05;16.80;99.90
16976;DHT22;8604;48.148;-1.786;2022-08-05T00:11:40;16.70;99.90
16976;DHT22;8604;48.148;-1.786;2022-08-05T00:14:22;16.70;99.90
16976;DHT22;8604;48.148;-1.786;2022-08-05T00:16:55;16.80;99.90
16976;DHT22;8604;48.148;-1.786;2022-08-05T00:19:23;16.70;99.90
16976;DHT22;8604;48.148;-1.786;2022-08-05T00:22:11;16.70;99.90
16976;DHT22;8604;48.148;-1.786;2022-08-05T00:24:43;16.70;99.90
16976;DHT22;8604;48.148;-1.786;2022-08-05T00:27:21;16.70;99.90
16976;DHT22;8604;48.148;-1.786;2022-08-05T00:30:03;16.70;99.90
16976;DHT22;8604;48.148;-1.786;2022-08-05T00:32:37;16.70;99.90
16976;DHT22;8604;48.148;-1.786;2022-08-05T00:35:07;16.60;99.90
16976;DHT22;8604;48.148;-1.786;2022-08-05T00:37:37;16.60;99.90
16976;DHT22;8604;48.148;-1.786;2022-08-05T00:40:21;16.60;99.90
16976;DHT22;8604;48.148;-1.786;2022-08-05T00:42:56;16.60;99.90
16976;DHT22;8604;48.148;-1.786;2022-08-05T00:45:24;16.60;99.90
16976;DHT22;8604;48.148;-1.786;2022-08-05T00:48:06;16.60;99.90
16976;DHT22;8604;48.148;-1.786;2022-08-05T00:50:37;16.70;99.90
16976;DHT22;8604;48.148;-1.786;2022-08-05T00:53:09;16.60;99.90
16976;DHT22;8604;48.148;-1.786;2022-08-05T00:55:57;16.70;99.90
16976;DHT22;8604;48.148;-1.786;2022-08-05T00:58:26;16.60;99.90
16976;DHT22;8604;48.148;-1.786;2022-08-05T01:00:54;16.60;99.90
16976;DHT22;8604;48.148;-1.786;2022-08-05T01:03:23;16.60;99.90
16976;DHT22;8604;48.148;-1.786;2022-08-05T01:05:59;16.60;99.90
16976;DHT22;8604;48.148;-1.786;2022-08-05T01:08:31;16.60;99.90
16976;DHT22;8604;48.148;-1.786;2022-08-05T01:11:16;16.60;99.90
16976;DHT22;8604;48.148;-1.786;2022-08-05T01:14:03;16.60;99.90
16976;DHT22;8604;48.148;-1.786;2022-08-05T01:16:39;16.60;99.90
16976;DHT22;8604;48.148;-1.786;2022-08-05T01:19:19;16.50;99.90
16976;DHT22;8604;48.148;-1.786;2022-08-05T01:22:20;16.60;99.90
16976;DHT22;8604;48.148;-1.786;2022-08-05T01:25:33;16.60;99.90
16976;DHT22;8604;48.148;-1.786;2022-08-05T01:28:23;16.50;99.90
16976;DHT22;8604;48.148;-1.786;2022-08-05T01:30:56;16.40;99.90
16976;DHT22;8604;48.148;-1.786;2022-08-05T01:33:32;16.40;99.90
16976;DHT22;8604;48.148;-1.786;2022-08-05T01:36:07;16.40;99.90
16976;DHT22;8604;48.148;-1.786;2022-08-05T01:38:43;16.40;99.90
16976;DHT22;8604;48.148;-1.786;2022-08-05T01:41:19;16.30;99.90
16976;DHT22;8604;48.148;-1.786;2022-08-05T01:43:53;16.30;99.90
16976;DHT22;8604;48.148;-1.786;2022-08-05T01:46:24;16.30;99.90
16976;DHT22;8604;48.148;-1.786;2022-08-05T01:49:17;16.30;99.90
16976;DHT22;8604;48.148;-1.786;2022-08-05T01:51:52;16.20;99.90
16976;DHT22;8604;48.148;-1.786;2022-08-05T01:54:24;16.20;99.90
16976;DHT22;8604;48.148;-1.786;2022-08-05T01:56:55;16.20;99.90
16976;DHT22;8604;48.148;-1.786;2022-08-05T01:59:47;16.20;99.90
16976;DHT22;8604;48.148;-1.786;2022-08-05T02:02:19;16.20;99.90
16976;DHT22;8604;48.148;-1.786;2022-08-05T02:04:58;16.10;99.90
16976;DHT22;8604;48.148;-1.786;2022-08-05T02:07:29;16.10;99.90
16976;DHT22;8604;48.148;-1.786;2022-08-05T02:10:00;16.10;99.90
16976;DHT22;8604;48.148;-1.786;2022-08-05T02:12:33;16.00;99.90
16976;DHT22;8604;48.148;-1.786;2022-08-05T02:15:08;16.00;99.90
16976;DHT22;8604;48.148;-1.786;2022-08-05T02:17:47;16.00;99.90
16976;DHT22;8604;48.148;-1.786;2022-08-05T02:20:41;16.00;99.90
16976;DHT22;8604;48.148;-1.786;2022-08-05T02:23:13;15.90;99.90
16976;DHT22;8604;48.148;-1.786;2022-08-05T02:25:43;15.90;99.90
16976;DHT22;8604;48.148;-1.786;2022-08-05T02:28:21;15.90;99.90
16976;DHT22;8604;48.148;-1.786;2022-08-05T02:31:01;15.80;99.90
16976;DHT22;8604;48.148;-1.786;2022-08-05T02:33:36;15.80;99.90
16976;DHT22;8604;48.148;-1.786;2022-08-05T02:36:09;15.80;99.90
16976;DHT22;8604;48.148;-1.786;2022-08-05T02:38:45;15.80;99.90
16976;DHT22;8604;48.148;-1.786;2022-08-05T02:41:21;15.80;99.90
16976;DHT22;8604;48.148;-1.786;2022-08-05T02:44:09;15.80;99.90
16976;DHT22;8604;48.148;-1.786;2022-08-05T02:46:43;15.80;99.90
16976;DHT22;8604;48.148;-1.786;2022-08-05T02:49:28;15.70;99.90
16976;DHT22;8604;48.148;-1.786;2022-08-05T02:52:05;15.80;99.90
16976;DHT22;8604;48.148;-1.786;2022-08-05T02:54:36;15.80;99.90
16976;DHT22;8604;48.148;-1.786;2022-08-05T02:57:10;15.80;99.90
16976;DHT22;8604;48.148;-1.786;2022-08-05T03:00:00;15.80;99.90
16976;DHT22;8604;48.148;-1.786;2022-08-05T03:02:33;15.70;99.90
16976;DHT22;8604;48.148;-1.786;2022-08-05T03:05:06;15.70;99.90
16976;DHT22;8604;48.148;-1.786;2022-08-05T03:07:37;15.70;99.90
16976;DHT22;8604;48.148;-1.786;2022-08-05T03:10:25;15.70;99.90
16976;DHT22;8604;48.148;-1.786;2022-08-05T03:12:53;15.70;99.90
16976;DHT22;8604;48.148;-1.786;2022-08-05T03:15:22;15.70;99.90
16976;DHT22;8604;48.148;-1.786;2022-08-05T03:17:53;15.70;99.90
16976;DHT22;8604;48.148;-1.786;2022-08-05T03:20:25;15.70;99.90
16976;DHT22;8604;48.148;-1.786;2022-08-05T03:22:53;15.70;99.90
16976;DHT22;8604;48.148;-1.786;2022-08-05T03:25:24;15.70;99.90
16976;DHT22;8604;48.148;-1.786;2022-08-05T03:28:13;15.70;99.90
16976;DHT22;8604;48.148;-1.786;2022-08-05T03:30:46;15.70;99.90
16976;DHT22;8604;48.148;-1.786;2022-08-05T03:33:16;15.80;99.90
16976;DHT22;8604;48.148;-1.786;2022-08-05T03:35:45;15.70;99.90
16976;DHT22;8604;48.148;-1.786;2022-08-05T03:38:15;15.70;99.90
16976;DHT22;8604;48.148;-1.786;2022-08-05T03:40:59;15.70;99.90
16976;DHT22;8604;48.148;-1.786;2022-08-05T03:43:35;15.70;99.90
16976;DHT22;8604;48.148;-1.786;2022-08-05T03:46:23;15.60;99.90
16976;DHT22;8604;48.148;-1.786;2022-08-05T03:48:58;15.60;99.90
16976;DHT22;8604;48.148;-1.786;2022-08-05T03:51:31;15.60;99.90
16976;DHT22;8604;48.148;-1.786;2022-08-05T03:54:29;15.50;99.90
16976;DHT22;8604;48.148;-1.786;2022-08-05T03:57:22;15.50;99.90
16976;DHT22;8604;48.148;-1.786;2022-08-05T04:00:09;15.50;99.90
16976;DHT22;8604;48.148;-1.786;2022-08-05T04:02:44;15.40;99.90
16976;DHT22;8604;48.148;-1.786;2022-08-05T04:05:29;15.40;99.90
16976;DHT22;8604;48.148;-1.786;2022-08-05T04:08:00;15.30;99.90
16976;DHT22;8604;48.148;-1.786;2022-08-05T04:10:31;15.40;99.90
16976;DHT22;8604;48.148;-1.786;2022-08-05T04:13:05;15.30;99.90
16976;DHT22;8604;48.148;-1.786;2022-08-05T04:15:34;15.30;99.90
16976;DHT22;8604;48.148;-1.786;2022-08-05T04:18:04;15.30;99.90
16976;DHT22;8604;48.148;-1.786;2022-08-05T04:20:37;15.30;99.90
16976;DHT22;8604;48.148;-1.786;2022-08-05T04:23:08;15.20;99.90
16976;DHT22;8604;48.148;-1.786;2022-08-05T04:25:42;15.20;99.90
16976;DHT22;8604;48.148;-1.786;2022-08-05T04:28:27;15.20;99.90
16976;DHT22;8604;48.148;-1.786;2022-08-05T04:30:58;15.20;99.90
16976;DHT22;8604;48.148;-1.786;2022-08-05T04:33:27;15.10;99.90
16976;DHT22;8604;48.148;-1.786;2022-08-05T04:36:17;15.10;99.90
16976;DHT22;8604;48.148;-1.786;2022-08-05T04:39:06;15.10;99.90
16976;DHT22;8604;48.148;-1.786;2022-08-05T04:41:34;15.10;99.90
16976;DHT22;8604;48.148;-1.786;2022-08-05T04:44:05;15.10;99.90
16976;DHT22;8604;48.148;-1.786;2022-08-05T04:46:36;15.10;99.90
16976;DHT22;8604;48.148;-1.786;2022-08-05T04:49:05;15.00;99.90
16976;DHT22;8604;48.148;-1.786;2022-08-05T04:51:42;15.00;99.90
16976;DHT22;8604;48.148;-1.786;2022-08-05T04:54:11;15.00;99.90
16976;DHT22;8604;48.148;-1.786;2022-08-05T04:56:40;15.00;99.90
16976;DHT22;8604;48.148;-1.786;2022-08-05T04:59:10;15.00;99.90
16976;DHT22;8604;48.148;-1.786;2022-08-05T05:01:52;15.00;99.90
16976;DHT22;8604;48.148;-1.786;2022-08-05T05:04:41;15.00;99.90
16976;DHT22;8604;48.148;-1.786;2022-08-05T05:07:11;15.00;99.90
16976;DHT22;8604;48.148;-1.786;2022-08-05T05:09:43;15.00;99.90
16976;DHT22;8604;48.148;-1.786;2022-08-05T05:12:11;15.00;99.90
16976;DHT22;8604;48.148;-1.786;2022-08-05T05:14:40;15.00;99.90
16976;DHT22;8604;48.148;-1.786;2022-08-05T05:17:16;15.00;99.90
16976;DHT22;8604;48.148;-1.786;2022-08-05T05:19:52;15.00;99.90
16976;DHT22;8604;48.148;-1.786;2022-08-05T05:22:24;15.00;99.90
16976;DHT22;8604;48.148;-1.786;2022-08-05T05:24:53;15.00;99.90
16976;DHT22;8604;48.148;-1.786;2022-08-05T05:27:24;15.00;99.90
16976;DHT22;8604;48.148;-1.786;2022-08-05T05:30:12;15.00;99.90
16976;DHT22;8604;48.148;-1.786;2022-08-05T05:33:00;15.00;99.90
16976;DHT22;8604;48.148;-1.786;2022-08-05T05:35:43;15.00;99.90
16976;DHT22;8604;48.148;-1.786;2022-08-05T05:38:14;15.10;99.90
16976;DHT22;8604;48.148;-1.786;2022-08-05T05:40:54;15.10;99.90
16976;DHT22;8604;48.148;-1.786;2022-08-05T05:43:23;15.10;99.90
16976;DHT22;8604;48.148;-1.786;2022-08-05T05:46:11;15.10;99.90
16976;DHT22;8604;48.148;-1.786;2022-08-05T05:48:43;15.10;99.90
16976;DHT22;8604;48.148;-1.786;2022-08-05T05:51:18;15.10;99.90
16976;DHT22;8604;48.148;-1.786;2022-08-05T05:53:49;15.10;99.90
16976;DHT22;8604;48.148;-1.786;2022-08-05T05:56:27;15.20;99.90
16976;DHT22;8604;48.148;-1.786;2022-08-05T05:59:01;15.20;99.90
16976;DHT22;8604;48.148;-1.786;2022-08-05T06:01:31;15.20;99.90
16976;DHT22;8604;48.148;-1.786;2022-08-05T06:04:04;15.30;99.90
16976;DHT22;8604;48.148;-1.786;2022-08-05T06:06:34;15.30;99.90
16976;DHT22;8604;48.148;-1.786;2022-08-05T06:09:09;15.30;99.90
16976;DHT22;8604;48.148;-1.786;2022-08-05T06:11:52;15.30;99.90
16976;DHT22;8604;48.148;-1.786;2022-08-05T06:14:29;15.30;99.90
16976;DHT22;8604;48.148;-1.786;2022-08-05T06:16:57;15.30;99.90
16976;DHT22;8604;48.148;-1.786;2022-08-05T06:19:28;15.30;99.90
16976;DHT22;8604;48.148;-1.786;2022-08-05T06:22:02;15.30;99.90
16976;DHT22;8604;48.148;-1.786;2022-08-05T06:24:34;15.40;99.90
16976;DHT22;8604;48.148;-1.786;2022-08-05T06:27:03;15.40;99.90
16976;DHT22;8604;48.148;-1.786;2022-08-05T06:29:52;15.50;99.90
16976;DHT22;8604;48.148;-1.786;2022-08-05T06:32:33;15.60;99.90
16976;DHT22;8604;48.148;-1.786;2022-08-05T06:35:06;15.70;99.90
16976;DHT22;8604;48.148;-1.786;2022-08-05T06:37:55;15.80;99.90
16976;DHT22;8604;48.148;-1.786;2022-08-05T06:40:29;15.90;99.90
16976;DHT22;8604;48.148;-1.786;2022-08-05T06:42:58;16.00;99.90
16976;DHT22;8604;48.148;-1.786;2022-08-05T06:45:27;16.10;99.90
16976;DHT22;8604;48.148;-1.786;2022-08-05T06:48:11;16.30;99.90
16976;DHT22;8604;48.148;-1.786;2022-08-05T06:50:59;16.40;99.90
16976;DHT22;8604;48.148;-1.786;2022-08-05T06:53:35;16.60;99.90
16976;DHT22;8604;48.148;-1.786;2022-08-05T06:56:07;16.80;99.90
16976;DHT22;8604;48.148;-1.786;2022-08-05T06:58:52;17.00;99.90
16976;DHT22;8604;48.148;-1.786;2022-08-05T07:01:21;17.30;99.90
16976;DHT22;8604;48.148;-1.786;2022-08-05T07:03:58;17.50;99.90
16976;DHT22;8604;48.148;-1.786;2022-08-05T07:06:28;17.90;99.90
16976;DHT22;8604;48.148;-1.786;2022-08-05T07:08:58;18.20;99.90
16976;DHT22;8604;48.148;-1.786;2022-08-05T07:11:32;18.50;99.90
16976;DHT22;8604;48.148;-1.786;2022-08-05T07:14:06;18.60;99.90
16976;DHT22;8604;48.148;-1.786;2022-08-05T07:16:56;18.90;99.90
16976;DHT22;8604;48.148;-1.786;2022-08-05T07:19:48;19.20;99.90
16976;DHT22;8604;48.148;-1.786;2022-08-05T07:22:38;19.60;99.90
16976;DHT22;8604;48.148;-1.786;2022-08-05T07:25:08;20.20;99.90
16976;DHT22;8604;48.148;-1.786;2022-08-05T07:27:58;20.70;99.90
16976;DHT22;8604;48.148;-1.786;2022-08-05T07:30:35;21.00;99.90
16976;DHT22;8604;48.148;-1.786;2022-08-05T07:33:06;21.30;99.90
16976;DHT22;8604;48.148;-1.786;2022-08-05T07:35:42;21.70;99.90
16976;DHT22;8604;48.148;-1.786;2022-08-05T07:38:31;21.70;99.90
16976;DHT22;8604;48.148;-1.786;2022-08-05T07:41:13;22.10;99.90
16976;DHT22;8604;48.148;-1.786;2022-08-05T07:44:05;22.50;99.90
16976;DHT22;8604;48.148;-1.786;2022-08-05T07:46:46;22.80;99.90
16976;DHT22;8604;48.148;-1.786;2022-08-05T07:49:16;23.00;99.90
16976;DHT22;8604;48.148;-1.786;2022-08-05T07:51:45;23.30;99.90
16976;DHT22;8604;48.148;-1.786;2022-08-05T07:54:21;23.30;99.90
16976;DHT22;8604;48.148;-1.786;2022-08-05T07:57:00;23.00;99.90
16976;DHT22;8604;48.148;-1.786;2022-08-05T07:59:50;23.00;99.90
16976;DHT22;8604;48.148;-1.786;2022-08-05T08:02:23;22.80;99.90
16976;DHT22;8604;48.148;-1.786;2022-08-05T08:05:12;22.30;99.90
16976;DHT22;8604;48.148;-1.786;2022-08-05T08:07:43;22.70;99.90
16976;DHT22;8604;48.148;-1.786;2022-08-05T08:10:26;23.20;99.90
16976;DHT22;8604;48.148;-1.786;2022-08-05T08:12:56;23.50;99.90
16976;DHT22;8604;48.148;-1.786;2022-08-05T08:15:26;23.90;99.90
16976;DHT22;8604;48.148;-1.786;2022-08-05T08:18:14;24.20;99.90
16976;DHT22;8604;48.148;-1.786;2022-08-05T08:20:47;24.80;99.90
16976;DHT22;8604;48.148;-1.786;2022-08-05T08:23:30;25.30;99.90
16976;DHT22;8604;48.148;-1.786;2022-08-05T08:26:19;25.60;99.90
16976;DHT22;8604;48.148;-1.786;2022-08-05T08:28:57;25.70;99.90
16976;DHT22;8604;48.148;-1.786;2022-08-05T08:31:47;25.50;99.90
16976;DHT22;8604;48.148;-1.786;2022-08-05T08:34:16;25.40;99.90
16976;DHT22;8604;48.148;-1.786;2022-08-05T08:36:57;25.00;99.90
16976;DHT22;8604;48.148;-1.786;2022-08-05T08:39:31;24.60;99.90
16976;DHT22;8604;48.148;-1.786;2022-08-05T08:42:04;25.00;99.90
16976;DHT22;8604;48.148;-1.786;2022-08-05T08:44:54;25.70;99.90
16976;DHT22;8604;48.148;-1.786;2022-08-05T08:47:45;26.00;99.90
16976;DHT22;8604;48.148;-1.786;2022-08-05T08:50:36;25.30;99.90
16976;DHT22;8604;48.148;-1.786;2022-08-05T08:53:27;25.30;99.90
16976;DHT22;8604;48.148;-1.786;2022-08-05T08:56:01;25.50;99.90
16976;DHT22;8604;48.148;-1.786;2022-08-05T08:58:32;25.60;99.90
16976;DHT22;8604;48.148;-1.786;2022-08-05T09:01:10;24.90;99.90
16976;DHT22;8604;48.148;-1.786;2022-08-05T09:03:47;25.20;99.90
16976;DHT22;8604;48.148;-1.786;2022-08-05T09:06:22;25.40;99.90
16976;DHT22;8604;48.148;-1.786;2022-08-05T09:08:57;26.00;99.90
16976;DHT22;8604;48.148;-1.786;2022-08-05T09:11:26;26.50;99.90
16976;DHT22;8604;48.148;-1.786;2022-08-05T09:14:15;27.00;99.90
16976;DHT22;8604;48.148;-1.786;2022-08-05T09:17:05;27.60;99.90
16976;DHT22;8604;48.148;-1.786;2022-08-05T09:19:37;28.30;99.90
16976;DHT22;8604;48.148;-1.786;2022-08-05T09:22:25;28.30;99.90
16976;DHT22;8604;48.148;-1.786;2022-08-05T09:24:58;28.00;99.90
16976;DHT22;8604;48.148;-1.786;2022-08-05T09:27:32;28.20;99.90
16976;DHT22;8604;48.148;-1.786;2022-08-05T09:30:21;28.00;99.90
16976;DHT22;8604;48.148;-1.786;2022-08-05T09:32:49;27.90;99.90
16976;DHT22;8604;48.148;-1.786;2022-08-05T09:35:21;28.10;99.90
16976;DHT22;8604;48.148;-1.786;2022-08-05T09:37:55;28.10;99.90
16976;DHT22;8604;48.148;-1.786;2022-08-05T09:40:44;28.50;99.90
16976;DHT22;8604;48.148;-1.786;2022-08-05T09:43:28;29.00;99.90
16976;DHT22;8604;48.148;-1.786;2022-08-05T09:46:23;29.10;99.90
16976;DHT22;8604;48.148;-1.786;2022-08-05T09:48:55;29.20;99.90
16976;DHT22;8604;48.148;-1.786;2022-08-05T09:51:45;28.80;99.90
16976;DHT22;8604;48.148;-1.786;2022-08-05T09:54:17;28.20;99.90
16976;DHT22;8604;48.148;-1.786;2022-08-05T09:56:56;27.90;99.90
16976;DHT22;8604;48.148;-1.786;2022-08-05T09:59:28;26.90;99.90
16976;DHT22;8604;48.148;-1.786;2022-08-05T10:02:03;27.00;99.90
16976;DHT22;8604;48.148;-1.786;2022-08-05T10:04:34;27.50;99.90
16976;DHT22;8604;48.148;-1.786;2022-08-05T10:07:06;28.40;99.90
16976;DHT22;8604;48.148;-1.786;2022-08-05T10:09:54;29.10;99.90
16976;DHT22;8604;48.148;-1.786;2022-08-05T10:12:43;29.70;99.90
16976;DHT22;8604;48.148;-1.786;2022-08-05T10:15:24;29.00;99.90
16976;DHT22;8604;48.148;-1.786;2022-08-05T10:18:12;29.30;99.90
16976;DHT22;8604;48.148;-1.786;2022-08-05T10:20:45;29.40;99.90
16976;DHT22;8604;48.148;-1.786;2022-08-05T10:23:17;29.20;99.90
16976;DHT22;8604;48.148;-1.786;2022-08-05T10:26:08;29.50;99.90
16976;DHT22;8604;48.148;-1.786;2022-08-05T10:28:58;29.70;99.90
16976;DHT22;8604;48.148;-1.786;2022-08-05T10:31:27;30.20;99.90
16976;DHT22;8604;48.148;-1.786;2022-08-05T10:34:15;30.10;99.90
16976;DHT22;8604;48.148;-1.786;2022-08-05T10:36:51;29.70;99.90
16976;DHT22;8604;48.148;-1.786;2022-08-05T10:39:26;29.80;99.90
16976;DHT22;8604;48.148;-1.786;2022-08-05T10:42:21;30.00;99.80
16976;DHT22;8604;48.148;-1.786;2022-08-05T10:45:00;30.00;99.50
16976;DHT22;8604;48.148;-1.786;2022-08-05T10:47:49;29.90;99.90
16976;DHT22;8604;48.148;-1.786;2022-08-05T10:50:57;29.80;99.80
16976;DHT22;8604;48.148;-1.786;2022-08-05T10:53:35;30.00;99.60
16976;DHT22;8604;48.148;-1.786;2022-08-05T10:56:07;30.20;99.30
16976;DHT22;8604;48.148;-1.786;2022-08-05T10:59:05;30.00;99.70
16976;DHT22;8604;48.148;-1.786;2022-08-05T11:02:05;30.20;98.70
16976;DHT22;8604;48.148;-1.786;2022-08-05T11:04:54;30.10;99.00
16976;DHT22;8604;48.148;-1.786;2022-08-05T11:07:23;30.00;98.30
16976;DHT22;8604;48.148;-1.786;2022-08-05T11:10:20;30.20;98.80
16976;DHT22;8604;48.148;-1.786;2022-08-05T11:12:57;30.30;98.50
16976;DHT22;8604;48.148;-1.786;2022-08-05T11:15:28;30.40;97.90
16976;DHT22;8604;48.148;-1.786;2022-08-05T11:18:26;30.50;98.20
16976;DHT22;8604;48.148;-1.786;2022-08-05T11:20:56;30.80;97.70
16976;DHT22;8604;48.148;-1.786;2022-08-05T11:23:35;31.10;97.40
16976;DHT22;8604;48.148;-1.786;2022-08-05T11:26:24;30.90;97.30
16976;DHT22;8604;48.148;-1.786;2022-08-05T11:28:57;30.90;97.30
16976;DHT22;8604;48.148;-1.786;2022-08-05T11:31:40;30.10;97.50
16976;DHT22;8604;48.148;-1.786;2022-08-05T11:34:38;30.30;97.50
16976;DHT22;8604;48.148;-1.786;2022-08-05T11:40:59;29.60;97.80
16976;DHT22;8604;48.148;-1.786;2022-08-05T11:43:57;28.40;97.70
16976;DHT22;8604;48.148;-1.786;2022-08-05T11:46:36;28.90;98.10
16976;DHT22;8604;48.148;-1.786;2022-08-05T11:49:25;29.50;98.30
16976;DHT22;8604;48.148;-1.786;2022-08-05T11:51:54;29.50;97.40
16976;DHT22;8604;48.148;-1.786;2022-08-05T11:54:25;29.60;97.80
16976;DHT22;8604;48.148;-1.786;2022-08-05T11:57:02;29.90;97.70
16976;DHT22;8604;48.148;-1.786;2022-08-05T11:59:52;30.00;97.10
16976;DHT22;8604;48.148;-1.786;2022-08-05T12:02:25;30.00;97.30
16976;DHT22;8604;48.148;-1.786;2022-08-05T12:04:59;30.10;97.50
16976;DHT22;8604;48.148;-1.786;2022-08-05T12:07:35;30.40;97.10
16976;DHT22;8604;48.148;-1.786;2022-08-05T12:10:26;30.40;96.70
16976;DHT22;8604;48.148;-1.786;2022-08-05T12:13:16;29.70;96.30
16976;DHT22;8604;48.148;-1.786;2022-08-05T12:16:08;29.40;97.20
16976;DHT22;8604;48.148;-1.786;2022-08-05T12:18:42;29.70;96.80
16976;DHT22;8604;48.148;-1.786;2022-08-05T12:21:21;29.50;96.60
16976;DHT22;8604;48.148;-1.786;2022-08-05T12:23:57;29.00;97.00
16976;DHT22;8604;48.148;-1.786;2022-08-05T12:26:32;28.50;97.00
16976;DHT22;8604;48.148;-1.786;2022-08-05T12:29:03;28.20;97.90
16976;DHT22;8604;48.148;-1.786;2022-08-05T12:31:39;28.20;97.50
16976;DHT22;8604;48.148;-1.786;2022-08-05T12:34:21;28.30;98.10
16976;DHT22;8604;48.148;-1.786;2022-08-05T12:36:52;28.10;97.10
16976;DHT22;8604;48.148;-1.786;2022-08-05T12:39:22;28.20;97.80
16976;DHT22;8604;48.148;-1.786;2022-08-05T12:42:08;28.20;97.50
16976;DHT22;8604;48.148;-1.786;2022-08-05T12:44:41;28.00;97.90
16976;DHT22;8604;48.148;-1.786;2022-08-05T12:47:12;27.80;98.30
16976;DHT22;8604;48.148;-1.786;2022-08-05T12:49:45;27.80;98.50
16976;DHT22;8604;48.148;-1.786;2022-08-05T12:52:33;27.90;98.10
16976;DHT22;8604;48.148;-1.786;2022-08-05T12:55:19;28.00;98.20
16976;DHT22;8604;48.148;-1.786;2022-08-05T12:57:52;27.90;98.10
16976;DHT22;8604;48.148;-1.786;2022-08-05T13:00:42;27.70;98.60
16976;DHT22;8604;48.148;-1.786;2022-08-05T13:03:34;27.50;98.70
16976;DHT22;8604;48.148;-1.786;2022-08-05T13:06:12;27.00;97.90
16976;DHT22;8604;48.148;-1.786;2022-08-05T13:08:42;26.80;97.80
16976;DHT22;8604;48.148;-1.786;2022-08-05T13:11:19;26.80;98.40
16976;DHT22;8604;48.148;-1.786;2022-08-05T13:14:17;26.80;98.80
16976;DHT22;8604;48.148;-1.786;2022-08-05T13:16:53;26.90;98.90
16976;DHT22;8604;48.148;-1.786;2022-08-05T13:19:25;27.00;98.40
16976;DHT22;8604;48.148;-1.786;2022-08-05T13:22:14;26.90;98.60
16976;DHT22;8604;48.148;-1.786;2022-08-05T13:24:57;26.70;99.10
16976;DHT22;8604;48.148;-1.786;2022-08-05T13:27:32;26.70;99.10
16976;DHT22;8604;48.148;-1.786;2022-08-05T13:30:07;26.50;98.50
16976;DHT22;8604;48.148;-1.786;2022-08-05T13:32:55;26.40;98.60
16976;DHT22;8604;48.148;-1.786;2022-08-05T13:35:29;26.30;99.00
16976;DHT22;8604;48.148;-1.786;2022-08-05T13:38:18;26.10;98.90
16976;DHT22;8604;48.148;-1.786;2022-08-05T13:41:02;26.00;99.20
16976;DHT22;8604;48.148;-1.786;2022-08-05T13:43:31;25.80;99.60
16976;DHT22;8604;48.148;-1.786;2022-08-05T13:46:20;25.90;99.50
16976;DHT22;8604;48.148;-1.786;2022-08-05T13:49:09;25.90;99.20
16976;DHT22;8604;48.148;-1.786;2022-08-05T13:51:40;26.00;99.30
16976;DHT22;8604;48.148;-1.786;2022-08-05T13:54:14;25.90;98.90
16976;DHT22;8604;48.148;-1.786;2022-08-05T13:56:47;25.80;99.50
16976;DHT22;8604;48.148;-1.786;2022-08-05T13:59:18;25.90;99.20
16976;DHT22;8604;48.148;-1.786;2022-08-05T14:01:53;26.10;99.60
16976;DHT22;8604;48.148;-1.786;2022-08-05T14:04:27;26.10;98.70
16976;DHT22;8604;48.148;-1.786;2022-08-05T14:07:23;25.90;99.00
16976;DHT22;8604;48.148;-1.786;2022-08-05T14:10:13;25.80;98.90
16976;DHT22;8604;48.148;-1.786;2022-08-05T14:12:54;25.80;98.90
16976;DHT22;8604;48.148;-1.786;2022-08-05T14:15:24;25.70;99.00
16976;DHT22;8604;48.148;-1.786;2022-08-05T14:18:13;25.70;99.20
16976;DHT22;8604;48.148;-1.786;2022-08-05T14:20:49;25.60;99.00
16976;DHT22;8604;48.148;-1.786;2022-08-05T14:23:22;25.50;99.50
16976;DHT22;8604;48.148;-1.786;2022-08-05T14:25:54;25.40;99.30
16976;DHT22;8604;48.148;-1.786;2022-08-05T14:28:25;25.30;99.50
16976;DHT22;8604;48.148;-1.786;2022-08-05T14:30:55;25.20;99.40
16976;DHT22;8604;48.148;-1.786;2022-08-05T14:33:23;25.20;99.30
16976;DHT22;8604;48.148;-1.786;2022-08-05T14:35:51;25.20;99.50
16976;DHT22;8604;48.148;-1.786;2022-08-05T14:38:22;25.20;99.30
16976;DHT22;8604;48.148;-1.786;2022-08-05T14:41:02;25.20;99.40
16976;DHT22;8604;48.148;-1.786;2022-08-05T14:43:34;25.10;99.30
16976;DHT22;8604;48.148;-1.786;2022-08-05T14:46:22;25.20;99.90
16976;DHT22;8604;48.148;-1.786;2022-08-05T14:48:55;25.20;99.50
16976;DHT22;8604;48.148;-1.786;2022-08-05T14:51:25;25.10;99.10
16976;DHT22;8604;48.148;-1.786;2022-08-05T14:53:58;25.00;99.00
16976;DHT22;8604;48.148;-1.786;2022-08-05T14:56:47;25.00;99.20
16976;DHT22;8604;48.148;-1.786;2022-08-05T14:59:20;24.90;99.10
16976;DHT22;8604;48.148;-1.786;2022-08-05T15:01:49;24.80;98.80
16976;DHT22;8604;48.148;-1.786;2022-08-05T15:04:21;24.80;98.80
16976;DHT22;8604;48.148;-1.786;2022-08-05T15:06:53;24.60;98.70
16976;DHT22;8604;48.148;-1.786;2022-08-05T15:09:23;24.50;99.00
16976;DHT22;8604;48.148;-1.786;2022-08-05T15:12:11;24.40;98.60
16976;DHT22;8604;48.148;-1.786;2022-08-05T15:14:43;24.20;98.80
16976;DHT22;8604;48.148;-1.786;2022-08-05T15:17:17;24.20;99.30
16976;DHT22;8604;48.148;-1.786;2022-08-05T15:20:06;24.20;99.30
16976;DHT22;8604;48.148;-1.786;2022-08-05T15:22:45;24.20;99.40
16976;DHT22;8604;48.148;-1.786;2022-08-05T15:25:23;24.20;99.10
16976;DHT22;8604;48.148;-1.786;2022-08-05T15:28:12;24.10;99.20
16976;DHT22;8604;48.148;-1.786;2022-08-05T15:30:42;24.00;99.40
16976;DHT22;8604;48.148;-1.786;2022-08-05T15:33:12;23.90;99.20
16976;DHT22;8604;48.148;-1.786;2022-08-05T15:36:01;23.80;99.50
16976;DHT22;8604;48.148;-1.786;2022-08-05T15:38:30;23.70;99.30
16976;DHT22;8604;48.148;-1.786;2022-08-05T15:41:08;23.80;99.50
16976;DHT22;8604;48.148;-1.786;2022-08-05T15:43:50;23.70;99.40
16976;DHT22;8604;48.148;-1.786;2022-08-05T15:46:22;23.60;99.50
16976;DHT22;8604;48.148;-1.786;2022-08-05T15:48:51;23.60;99.60
16976;DHT22;8604;48.148;-1.786;2022-08-05T15:51:28;23.50;99.70
16976;DHT22;8604;48.148;-1.786;2022-08-05T15:54:17;23.50;99.90
16976;DHT22;8604;48.148;-1.786;2022-08-05T15:56:46;23.40;99.80
16976;DHT22;8604;48.148;-1.786;2022-08-05T15:59:15;23.40;99.90
16976;DHT22;8604;48.148;-1.786;2022-08-05T16:01:48;23.50;99.90
16976;DHT22;8604;48.148;-1.786;2022-08-05T16:04:19;23.30;99.90
16976;DHT22;8604;48.148;-1.786;2022-08-05T16:06:52;23.30;99.90
16976;DHT22;8604;48.148;-1.786;2022-08-05T16:09:22;23.30;99.90
16976;DHT22;8604;48.148;-1.786;2022-08-05T16:11:52;23.40;99.90
16976;DHT22;8604;48.148;-1.786;2022-08-05T16:14:20;23.30;99.90
16976;DHT22;8604;48.148;-1.786;2022-08-05T16:16:49;23.40;99.90
16976;DHT22;8604;48.148;-1.786;2022-08-05T16:19:18;23.40;99.90
16976;DHT22;8604;48.148;-1.786;2022-08-05T16:22:06;23.20;99.90
16976;DHT22;8604;48.148;-1.786;2022-08-05T16:24:36;23.10;99.90
16976;DHT22;8604;48.148;-1.786;2022-08-05T16:27:18;23.00;99.90
16976;DHT22;8604;48.148;-1.786;2022-08-05T16:30:08;22.90;99.90
16976;DHT22;8604;48.148;-1.786;2022-08-05T16:32:53;22.80;99.90
16976;DHT22;8604;48.148;-1.786;2022-08-05T16:35:21;22.80;99.90
16976;DHT22;8604;48.148;-1.786;2022-08-05T16:37:56;22.90;99.90
16976;DHT22;8604;48.148;-1.786;2022-08-05T16:40:45;22.90;99.90